Terminal Aerodrome Forecast
Issued by NWS Sioux Falls, SD

Home | Current Version | Previous Version | Text Only | Print | Product List | Glossary On
Versions: 1 2 3 4 5 6 7 8 9 10 11 12 13 14 15 16 17
846
FTUS43 KFSD 241725
TAFHON
TAF
KHON 241725Z 2418/2518 15007KT P6SM SCT030 BKN035
     FM242300 15011KT P6SM FEW200
     FM251100 16015G23KT P6SM SCT200 WS020/17045KT
     FM251200 15015G23KT P6SM SCT200
     FM251600 19013G19KT P6SM BKN200=

USA.gov is the U.S. government's official web portal to all federal, state and local government web resources and services.